Time;durP1;ratioP1;P1;durP2;ratioP2;P2;SDS_P1;SDS_P2;PMS_P1;PMS_P2;Temp;Humidity;BMP_temperature;BMP_pressure;BME280_temperature;BME280_humidity;BME280_pressure;Samples;Min_cycle;Max_cycle;Signal;HPM_P1;HPM_P2
2023/06/13 00:02:22;;;;;;;1.77;1.40;;;12.00;99.90;;;;;;5160978;28;20042;-68
2023/06/13 00:04:57;;;;;;;1.85;1.58;;;12.00;99.90;;;;;;5150279;28;20068;-71
2023/06/13 00:07:31;;;;;;;5.93;1.50;;;12.00;99.90;;;;;;5133210;28;20042;-67
2023/06/13 00:10:06;;;;;;;;;;;11.90;99.90;;;;;;5142911;28;20045;-69
2023/06/13 00:12:44;;;;;;;1.67;1.52;;;11.90;99.90;;;;;;5144546;28;20325;-66
2023/06/13 00:15:16;;;;;;;1.60;1.50;;;11.80;99.90;;;;;;5158304;28;20027;-69
2023/06/13 00:17:50;;;;;;;1.55;1.40;;;11.80;99.90;;;;;;5143687;28;20042;-68
2023/06/13 00:20:24;;;;;;;1.23;1.13;;;11.70;1.00;;;;;;5140610;28;20034;-71
2023/06/13 00:22:57;;;;;;;1.80;1.70;;;11.60;1.00;;;;;;5150109;28;20038;-70
2023/06/13 00:25:31;;;;;;;1.67;1.58;;;11.60;1.00;;;;;;5127367;28;20072;-69
2023/06/13 00:28:07;;;;;;;4.15;1.67;;;11.50;38.70;;;;;;5144434;28;20053;-69
2023/06/13 00:30:41;;;;;;;2.15;1.95;;;11.40;99.90;;;;;;5124390;28;20022;-70
2023/06/13 00:33:17;;;;;;;1.50;1.40;;;11.40;1.00;;;;;;5147896;28;20026;-69
2023/06/13 00:35:48;;;;;;;2.00;1.75;;;11.30;1.00;;;;;;5151241;28;20034;-69
2023/06/13 00:38:23;;;;;;;1.50;1.40;;;11.20;1.00;;;;;;5125377;28;20053;-68
2023/06/13 00:40:57;;;;;;;2.25;1.63;;;11.10;1.00;;;;;;5109334;28;20041;-69
2023/06/13 00:43:30;;;;;;;2.08;1.67;;;11.10;1.00;;;;;;5143052;28;20022;-69
2023/06/13 00:46:06;;;;;;;1.83;1.73;;;11.00;1.00;;;;;;5128468;28;20262;-69
2023/06/13 00:48:43;;;;;;;2.70;1.63;;;11.00;1.00;;;;;;5171213;28;20546;-70
2023/06/13 00:51:16;;;;;;;1.63;1.52;;;11.00;1.00;;;;;;5145566;28;20030;-69
2023/06/13 00:53:48;;;;;;;1.38;1.27;;;11.00;18.10;;;;;;5111154;28;20038;-68
2023/06/13 00:56:28;;;;;;;1.70;1.60;;;11.00;99.90;;;;;;5159479;28;20018;-68
2023/06/13 00:59:03;;;;;;;2.22;1.40;;;10.90;99.90;;;;;;5141476;28;20026;-70
2023/06/13 01:01:43;;;;;;;2.85;1.90;;;10.70;99.90;;;;;;5221620;22;20041;-86
2023/06/13 01:04:19;;;;;;;2.08;1.92;;;10.70;99.90;;;;;;5214322;28;20027;-85
2023/06/13 01:06:51;;;;;;;2.28;2.05;;;10.70;99.90;;;;;;5224869;28;20028;-86
2023/06/13 01:09:24;;;;;;;1.85;1.75;;;10.60;1.00;;;;;;5224627;28;20029;-85
2023/06/13 01:12:13;;;;;;;1.65;1.55;;;10.50;1.00;;;;;;5207551;28;20177;-86
2023/06/13 01:14:56;;;;;;;1.75;1.33;;;10.50;1.00;;;;;;5207295;28;20051;-86
2023/06/13 01:17:36;;;;;;;2.00;1.83;;;10.40;1.00;;;;;;5206587;28;20037;-87
2023/06/13 01:20:11;;;;;;;1.88;1.75;;;10.30;1.40;;;;;;5191333;28;20036;-87
2023/06/13 01:23:17;;;;;;;2.28;1.60;;;10.30;99.90;;;;;;5210263;28;20037;-85
2023/06/13 01:29:41;;;;;;;1.85;1.52;;;10.10;99.90;;;;;;5215239;28;20029;-86
2023/06/13 01:32:37;;;;;;;1.40;1.30;;;10.10;99.90;;;;;;5212936;28;20039;-86
2023/06/13 01:35:10;;;;;;;1.60;1.50;;;10.00;99.90;;;;;;5191323;28;20222;-85
2023/06/13 01:37:42;;;;;;;1.60;1.50;;;10.00;99.90;;;;;;5207681;28;20044;-84
2023/06/13 01:40:16;;;;;;;1.73;1.42;;;9.90;1.00;;;;;;5207237;28;20035;-85
2023/06/13 01:42:48;;;;;;;1.55;1.17;;;9.90;1.00;;;;;;5191703;28;20036;-86
2023/06/13 01:45:21;;;;;;;1.88;1.45;;;9.80;1.00;;;;;;5207756;28;20337;-85
2023/06/13 01:48:26;;;;;;;1.65;1.55;;;9.80;1.00;;;;;;5206585;28;20032;-86
2023/06/13 01:54:52;;;;;;;1.73;1.63;;;9.80;1.00;;;;;;5248663;28;20028;-87
2023/06/13 01:57:41;;;;;;;3.42;1.17;;;9.80;1.00;;;;;;5201134;28;20176;-86
2023/06/13 02:00:17;;;;;;;;;;;9.80;1.00;;;;;;5208331;28;20025;-87
2023/06/13 02:03:11;;;;;;;1.92;1.73;;;9.70;1.00;;;;;;5208263;28;19908;-85
2023/06/13 02:05:51;;;;;;;1.92;1.73;;;9.70;1.00;;;;;;5184209;28;20231;-86
2023/06/13 02:09:01;;;;;;;2.70;1.50;;;9.70;1.00;;;;;;5213753;28;20055;-86
2023/06/13 02:11:36;;;;;;;1.88;1.77;;;9.60;1.00;;;;;;5180735;28;20323;-85
2023/06/13 02:14:12;;;;;;;1.63;1.52;;;9.60;1.00;;;;;;5168438;28;20109;-86
2023/06/13 02:17:12;;;;;;;1.58;1.35;;;9.50;1.00;;;;;;5181361;28;20025;-88
2023/06/13 02:19:54;;;;;;;1.27;1.17;;;9.50;1.00;;;;;;5170501;28;20030;-84
2023/06/13 02:22:35;;;;;;;3.17;1.75;;;9.50;1.00;;;;;;5182764;28;20327;-86
2023/06/13 02:27:50;;;;;;;1.83;1.65;;;9.50;1.00;;;;;;5195188;28;20048;-69
2023/06/13 02:30:22;;;;;;;1.75;1.45;;;9.50;1.00;;;;;;5191698;28;20048;-67
2023/06/13 02:32:53;;;;;;;3.60;2.20;;;9.50;1.00;;;;;;5189943;28;20035;-68
2023/06/13 02:35:27;;;;;;;1.52;1.42;;;9.50;1.00;;;;;;5197972;28;20041;-70
2023/06/13 02:37:59;;;;;;;1.67;1.58;;;9.50;1.00;;;;;;5198618;28;20155;-69
2023/06/13 02:40:33;;;;;;;1.42;1.30;;;9.40;1.00;;;;;;5177418;28;20116;-67
2023/06/13 02:43:05;;;;;;;1.98;1.88;;;9.40;1.00;;;;;;5178999;28;20033;-66
2023/06/13 02:45:36;;;;;;;1.60;1.50;;;9.40;1.00;;;;;;5196633;28;20391;-66
2023/06/13 02:48:10;;;;;;;1.10;1.10;;;9.30;1.00;;;;;;5200011;28;20025;-72
2023/06/13 02:50:47;;;;;;;2.03;1.25;;;9.30;1.00;;;;;;5185304;28;20029;-70
2023/06/13 02:53:27;;;;;;;2.00;1.80;;;9.30;1.00;;;;;;5188449;28;20037;-68
2023/06/13 02:56:01;;;;;;;1.40;1.30;;;9.20;1.00;;;;;;5188958;28;20041;-71
2023/06/13 02:58:33;;;;;;;1.48;1.38;;;9.20;1.00;;;;;;5212152;28;20036;-72
2023/06/13 03:01:05;;;;;;;2.15;1.77;;;9.30;1.00;;;;;;5204899;28;20051;-71
2023/06/13 03:03:42;;;;;;;1.63;1.25;;;9.20;1.00;;;;;;5183880;28;20611;-70
2023/06/13 03:06:17;;;;;;;2.22;1.45;;;9.30;1.00;;;;;;5158835;28;20233;-66
2023/06/13 03:08:49;;;;;;;1.92;1.67;;;9.30;1.00;;;;;;5181771;28;20339;-68
2023/06/13 03:11:20;;;;;;;2.20;1.67;;;9.30;1.00;;;;;;5175797;28;20044;-69
2023/06/13 03:13:51;;;;;;;2.72;1.60;;;9.20;1.00;;;;;;5191957;28;20033;-71
2023/06/13 03:16:24;;;;;;;1.98;1.77;;;9.20;1.00;;;;;;5155074;28;20034;-69
2023/06/13 03:18:58;;;;;;;1.92;1.63;;;9.40;1.00;;;;;;5190598;28;20040;-73
2023/06/13 03:21:30;;;;;;;5.65;1.73;;;9.50;1.00;;;;;;5197141;28;20040;-71
2023/06/13 03:24:01;;;;;;;1.50;1.40;;;9.60;1.00;;;;;;5212900;28;20048;-73
2023/06/13 03:26:39;;;;;;;1.60;1.50;;;9.70;1.00;;;;;;5183731;28;20060;-71
2023/06/13 03:29:11;;;;;;;1.73;1.50;;;9.80;1.00;;;;;;5181435;28;20044;-70
2023/06/13 03:31:45;;;;;;;2.20;1.77;;;9.90;1.00;;;;;;5159961;28;20034;-71
2023/06/13 03:34:16;;;;;;;2.25;2.00;;;10.00;1.00;;;;;;5180679;28;20036;-69
2023/06/13 03:36:48;;;;;;;1.95;1.77;;;10.30;1.00;;;;;;5180516;28;20354;-71
2023/06/13 03:39:20;;;;;;;2.33;1.75;;;10.50;1.00;;;;;;5180663;28;20037;-71
2023/06/13 03:41:57;;;;;;;1.83;1.60;;;10.50;1.00;;;;;;5182336;28;20026;-70
2023/06/13 03:44:31;;;;;;;2.85;2.00;;;10.50;1.00;;;;;;5180612;28;20030;-69
2023/06/13 03:47:02;;;;;;;;;;;10.70;1.00;;;;;;5176602;28;20063;-69
2023/06/13 03:49:34;;;;;;;1.58;1.48;;;10.80;1.00;;;;;;5178434;28;19905;-70
2023/06/13 03:52:06;;;;;;;3.60;1.60;;;10.90;1.00;;;;;;5172485;28;20473;-69
2023/06/13 03:54:37;;;;;;;2.45;1.48;;;11.10;1.00;;;;;;5150909;28;20411;-71
2023/06/13 03:57:08;;;;;;;1.52;1.42;;;11.10;99.90;;;;;;5179645;28;20049;-69
2023/06/13 03:59:40;;;;;;;2.10;1.80;;;11.30;99.90;;;;;;5181064;28;20039;-73
2023/06/13 04:02:13;;;;;;;2.13;1.92;;;11.40;99.90;;;;;;5160570;28;20034;-71
2023/06/13 04:04:46;;;;;;;1.98;1.80;;;11.40;99.90;;;;;;5152556;28;20038;-71
2023/06/13 04:07:21;;;;;;;1.85;1.75;;;11.70;99.90;;;;;;5179473;28;20040;-71
2023/06/13 04:09:52;;;;;;;2.30;2.10;;;11.80;99.90;;;;;;5180637;28;20037;-69
2023/06/13 04:12:26;;;;;;;2.50;2.30;;;11.80;99.90;;;;;;5181584;28;20032;-70
2023/06/13 04:15:00;;;;;;;1.70;1.60;;;11.90;99.90;;;;;;5196361;28;20041;-69
2023/06/13 04:17:36;;;;;;;3.80;1.85;;;11.90;99.90;;;;;;5194011;28;20052;-70
2023/06/13 04:20:09;;;;;;;2.70;2.33;;;12.00;99.90;;;;;;5198988;28;20052;-68
2023/06/13 04:22:41;;;;;;;1.80;1.20;;;12.10;99.90;;;;;;5186584;28;20399;-71
2023/06/13 04:25:13;;;;;;;4.55;1.98;;;12.30;99.90;;;;;;5192989;28;20033;-72
2023/06/13 04:27:44;;;;;;;2.70;1.80;;;12.50;99.90;;;;;;5189410;28;20056;-70
2023/06/13 04:30:19;;;;;;;2.65;1.65;;;12.60;99.90;;;;;;5152005;28;20489;-70
2023/06/13 04:32:51;;;;;;;2.15;1.95;;;12.60;99.90;;;;;;5177957;28;20056;-70
2023/06/13 04:35:26;;;;;;;2.42;2.00;;;12.80;1.00;;;;;;5175572;28;20034;-70
2023/06/13 04:37:58;;;;;;;1.83;1.73;;;13.00;1.00;;;;;;5177389;28;20055;-71
2023/06/13 04:40:33;;;;;;;4.47;1.77;;;13.20;1.00;;;;;;5196673;28;20033;-70
2023/06/13 04:43:04;;;;;;;2.30;1.70;;;13.40;1.00;;;;;;5196831;28;20040;-69
2023/06/13 04:45:37;;;;;;;2.13;1.60;;;13.60;1.00;;;;;;5179680;28;20035;-70
2023/06/13 04:48:09;;;;;;;2.28;1.90;;;14.00;1.00;;;;;;5180360;28;20034;-69
2023/06/13 04:50:41;;;;;;;3.08;2.10;;;14.30;1.00;;;;;;5162682;28;20048;-70
2023/06/13 04:53:21;;;;;;;2.03;1.70;;;14.60;1.00;;;;;;5171202;28;20030;-69
2023/06/13 04:55:52;;;;;;;1.77;1.67;;;14.90;1.00;;;;;;5178698;28;20143;-70
2023/06/13 04:58:24;;;;;;;2.08;1.88;;;15.20;1.00;;;;;;5196179;28;20048;-71
2023/06/13 05:00:58;;;;;;;2.03;1.88;;;15.50;1.00;;;;;;5175894;28;20342;-72
2023/06/13 05:03:34;;;;;;;2.85;2.22;;;15.90;1.00;;;;;;5180506;28;20029;-68
2023/06/13 05:06:12;;;;;;;2.60;2.15;;;16.10;1.00;;;;;;5174022;28;20093;-69
2023/06/13 05:08:43;;;;;;;1.65;1.50;;;16.40;1.00;;;;;;5175026;28;20325;-70
2023/06/13 05:11:17;;;;;;;1.75;1.42;;;16.40;1.00;;;;;;5174949;28;20433;-69
2023/06/13 05:13:50;;;;;;;2.05;1.85;;;16.50;1.00;;;;;;5167199;28;20030;-68
2023/06/13 05:16:29;;;;;;;1.90;1.80;;;16.60;1.00;;;;;;5175850;28;20040;-70
2023/06/13 05:19:05;;;;;;;2.63;1.80;;;16.80;1.00;;;;;;5179290;28;20060;-69
2023/06/13 05:21:36;;;;;;;1.63;1.50;;;17.00;1.00;;;;;;5176236;28;20049;-73
2023/06/13 05:24:09;;;;;;;1.58;1.48;;;16.60;1.00;;;;;;5208257;28;20045;-71
2023/06/13 05:26:43;;;;;;;1.70;1.60;;;16.50;1.00;;;;;;5203505;28;20037;-69
2023/06/13 05:29:20;;;;;;;1.88;1.75;;;16.50;1.00;;;;;;5191076;28;20063;-70
2023/06/13 05:31:52;;;;;;;2.63;1.80;;;16.80;1.00;;;;;;5182497;28;20036;-72
2023/06/13 05:34:26;;;;;;;1.40;1.30;;;17.30;1.00;;;;;;5178842;28;20043;-71
2023/06/13 05:36:58;;;;;;;1.50;1.40;;;17.80;1.00;;;;;;5182711;28;20045;-70
2023/06/13 05:39:32;;;;;;;3.92;2.13;;;18.20;1.00;;;;;;5181092;28;20551;-69
2023/06/13 05:42:04;;;;;;;2.13;1.70;;;18.60;1.00;;;;;;5182031;28;20047;-71
2023/06/13 05:44:36;;;;;;;1.50;1.40;;;18.40;1.00;;;;;;5166166;28;20344;-71
2023/06/13 05:47:09;;;;;;;1.95;1.70;;;17.90;1.00;;;;;;5196643;28;20032;-71
2023/06/13 05:49:41;;;;;;;5.22;2.05;;;17.90;1.00;;;;;;5183240;28;20029;-68
2023/06/13 05:52:12;;;;;;;1.73;1.58;;;17.80;1.00;;;;;;5166110;28;20029;-70
2023/06/13 05:54:44;;;;;;;1.83;1.73;;;17.50;1.00;;;;;;5184881;28;20047;-67
2023/06/13 05:57:16;;;;;;;2.80;1.90;;;17.70;1.00;;;;;;5199135;28;20041;-68
2023/06/13 05:59:49;;;;;;;1.70;1.40;;;18.00;1.00;;;;;;5196842;28;20048;-68
2023/06/13 06:02:23;;;;;;;1.65;1.55;;;18.30;1.00;;;;;;5195955;28;20030;-70
2023/06/13 06:04:56;;;;;;;1.60;1.50;;;18.50;1.00;;;;;;5188134;28;20052;-70
2023/06/13 06:07:28;;;;;;;2.00;1.50;;;18.80;1.00;;;;;;5182396;28;20033;-70
2023/06/13 06:10:03;;;;;;;2.05;1.80;;;19.00;1.00;;;;;;5177747;28;20059;-68
2023/06/13 06:12:37;;;;;;;3.63;1.52;;;19.00;1.00;;;;;;5160018;28;20041;-70
2023/06/13 06:15:10;;;;;;;1.77;1.67;;;19.30;1.00;;;;;;5162953;28;20042;-73
2023/06/13 06:17:44;;;;;;;2.92;2.05;;;19.90;1.00;;;;;;5163276;28;20052;-70
2023/06/13 06:20:18;;;;;;;2.22;1.80;;;20.40;1.00;;;;;;5164512;28;20040;-71
2023/06/13 06:22:50;;;;;;;2.30;1.45;;;20.50;1.00;;;;;;5197323;28;20037;-70
2023/06/13 06:25:21;;;;;;;2.25;1.60;;;20.70;1.00;;;;;;5146476;28;20307;-70
2023/06/13 06:27:53;;;;;;;2.15;1.40;;;21.00;1.00;;;;;;5176828;28;20454;-70
2023/06/13 06:30:24;;;;;;;1.80;1.55;;;21.10;1.00;;;;;;5176711;28;20059;-72
2023/06/13 06:32:56;;;;;;;1.75;1.60;;;21.00;1.00;;;;;;5159987;28;20033;-70
2023/06/13 06:35:30;;;;;;;1.60;1.50;;;20.90;1.00;;;;;;5182117;28;20037;-72
2023/06/13 06:38:04;;;;;;;3.50;1.75;;;20.40;1.00;;;;;;5179609;28;20091;-69
2023/06/13 06:40:38;;;;;;;2.42;1.63;;;20.00;1.00;;;;;;5164417;28;20406;-70
2023/06/13 06:43:11;;;;;;;2.15;1.70;;;19.60;1.00;;;;;;5186322;28;20338;-71
2023/06/13 06:45:43;;;;;;;5.10;1.92;;;19.80;1.00;;;;;;5192285;28;20037;-69
2023/06/13 06:48:14;;;;;;;3.47;1.63;;;20.20;1.00;;;;;;5194473;28;20041;-70
2023/06/13 06:50:46;;;;;;;3.17;2.08;;;19.80;1.00;;;;;;5196357;28;20035;-68
2023/06/13 06:53:19;;;;;;;2.90;1.90;;;20.00;1.00;;;;;;5171640;28;20357;-68
2023/06/13 06:55:50;;;;;;;2.03;1.93;;;20.60;1.00;;;;;;5179135;28;20029;-70
2023/06/13 06:58:22;;;;;;;2.67;1.95;;;21.20;1.00;;;;;;5198199;28;20029;-70
2023/06/13 07:00:53;;;;;;;3.53;2.10;;;21.10;1.00;;;;;;5193413;28;20115;-68
2023/06/13 07:03:24;;;;;;;2.40;1.55;;;20.70;1.00;;;;;;5172528;28;20037;-70
2023/06/13 07:05:55;;;;;;;1.73;1.52;;;20.50;1.00;;;;;;5172056;28;20052;-69
2023/06/13 07:08:29;;;;;;;1.70;1.60;;;20.50;1.00;;;;;;5177236;28;20045;-69
2023/06/13 07:11:03;;;;;;;3.55;1.83;;;20.80;1.00;;;;;;5165201;28;20029;-67
2023/06/13 07:13:34;;;;;;;1.85;1.60;;;21.00;1.00;;;;;;5203219;28;20029;-70
2023/06/13 07:16:06;;;;;;;2.63;1.50;;;20.80;1.00;;;;;;5192848;28;20029;-68
2023/06/13 07:18:39;;;;;;;2.38;1.55;;;21.20;1.00;;;;;;5181103;28;20046;-70
2023/06/13 07:21:10;;;;;;;2.22;1.42;;;20.80;1.00;;;;;;5168533;28;20041;-70
2023/06/13 07:23:45;;;;;;;1.60;1.20;;;21.10;1.00;;;;;;5187272;28;20029;-68
2023/06/13 07:26:22;;;;;;;2.50;1.80;;;21.60;1.00;;;;;;5179658;28;20068;-73
2023/06/13 07:28:56;;;;;;;1.30;1.17;;;21.20;1.00;;;;;;5198400;28;20226;-68
2023/06/13 07:31:28;;;;;;;1.52;1.42;;;21.40;1.00;;;;;;5193784;28;20030;-69
2023/06/13 07:34:00;;;;;;;1.42;1.30;;;21.90;1.00;;;;;;5187393;28;20044;-68
2023/06/13 07:36:32;;;;;;;1.70;1.50;;;22.20;1.00;;;;;;5164048;28;20605;-70
2023/06/13 07:39:15;;;;;;;1.88;1.48;;;22.60;1.00;;;;;;5180307;28;20035;-71
2023/06/13 07:41:50;;;;;;;3.15;1.42;;;22.60;1.00;;;;;;5198516;28;20032;-69
2023/06/13 07:44:21;;;;;;;1.60;1.50;;;22.60;1.00;;;;;;5196948;28;20285;-70
2023/06/13 07:46:59;;;;;;;3.65;1.65;;;22.70;1.00;;;;;;5195212;28;20021;-69
2023/06/13 07:49:32;;;;;;;1.45;1.25;;;22.20;1.00;;;;;;5189628;28;20044;-71
2023/06/13 07:52:08;;;;;;;2.10;1.80;;;22.60;1.00;;;;;;5171877;28;20037;-72
2023/06/13 07:54:40;;;;;;;1.80;1.70;;;22.80;1.00;;;;;;5202784;28;20491;-72
2023/06/13 07:57:12;;;;;;;4.93;1.90;;;23.10;1.00;;;;;;5198943;28;20043;-68
2023/06/13 07:59:43;;;;;;;1.70;1.60;;;23.20;1.00;;;;;;5149056;28;20034;-71
2023/06/13 08:02:17;;;;;;;1.58;1.45;;;23.30;1.00;;;;;;5193967;28;20459;-70
2023/06/13 08:04:51;;;;;;;3.15;1.52;;;23.20;1.00;;;;;;5184629;28;20415;-69
2023/06/13 08:07:22;;;;;;;1.67;1.55;;;23.20;1.00;;;;;;5193826;28;20055;-70
2023/06/13 08:09:54;;;;;;;3.13;1.30;;;23.20;1.00;;;;;;5204317;28;20043;-71
2023/06/13 08:12:25;;;;;;;1.33;1.00;;;23.20;1.00;;;;;;5160792;28;20128;-73
2023/06/13 08:14:59;;;;;;;1.48;1.38;;;23.40;1.00;;;;;;5172899;28;20029;-73
2023/06/13 08:17:36;;;;;;;1.70;1.60;;;22.30;1.00;;;;;;5218886;28;20033;-69
2023/06/13 08:20:11;;;;;;;1.88;1.48;;;21.80;1.00;;;;;;5200693;28;20033;-72
2023/06/13 08:22:47;;;;;;;2.78;1.60;;;22.10;1.00;;;;;;5199578;28;20035;-69
2023/06/13 08:25:21;;;;;;;1.50;1.40;;;22.70;1.00;;;;;;5199801;28;20030;-69
2023/06/13 08:27:57;;;;;;;1.58;1.48;;;21.80;1.00;;;;;;5188326;28;20045;-68
2023/06/13 08:30:30;;;;;;;1.75;1.48;;;21.10;1.00;;;;;;5187579;28;20057;-72
2023/06/13 08:33:04;;;;;;;1.95;1.60;;;21.30;1.00;;;;;;5166884;28;20050;-70
2023/06/13 08:35:38;;;;;;;;;;;21.10;1.00;;;;;;5187196;28;20491;-69
2023/06/13 08:38:11;;;;;;;1.60;1.48;;;21.90;1.00;;;;;;5186570;28;20355;-70
2023/06/13 08:40:43;;;;;;;4.00;1.60;;;22.10;1.00;;;;;;5199514;28;20558;-70
2023/06/13 08:43:18;;;;;;;3.13;1.75;;;22.40;1.00;;;;;;5203250;28;20047;-68
2023/06/13 08:45:57;;;;;;;1.30;1.20;;;22.20;1.00;;;;;;5217610;28;20039;-71
2023/06/13 08:48:32;;;;;;;1.40;1.30;;;22.20;1.00;;;;;;5203863;28;20052;-70
2023/06/13 08:51:04;;;;;;;2.38;1.40;;;22.60;1.00;;;;;;5184813;28;20043;-69
2023/06/13 08:53:38;;;;;;;1.15;1.05;;;22.60;1.00;;;;;;5199969;28;20029;-73
2023/06/13 08:56:09;;;;;;;2.63;1.60;;;23.00;1.00;;;;;;5198943;28;20238;-71
2023/06/13 08:58:43;;;;;;;1.98;1.45;;;23.70;1.00;;;;;;5202144;28;20043;-68
2023/06/13 09:01:17;;;;;;;1.35;1.25;;;23.90;1.00;;;;;;5211818;28;20045;-68
2023/06/13 09:03:49;;;;;;;1.98;1.55;;;23.70;1.00;;;;;;5168234;28;20037;-71
2023/06/13 09:06:21;;;;;;;1.27;1.17;;;24.00;1.00;;;;;;5193225;28;20059;-72
2023/06/13 09:08:56;;;;;;;1.20;1.10;;;24.20;1.00;;;;;;5172167;28;20037;-73
2023/06/13 09:11:29;;;;;;;1.45;1.20;;;24.50;1.00;;;;;;5178931;28;20022;-72
2023/06/13 09:14:06;;;;;;;1.60;1.50;;;24.40;1.00;;;;;;5186335;28;20645;-68
2023/06/13 09:16:40;;;;;;;2.22;1.52;;;25.00;1.00;;;;;;5188466;28;20044;-72
2023/06/13 09:19:17;;;;;;;1.10;0.95;;;25.10;1.00;;;;;;5208026;28;20361;-69
2023/06/13 09:21:48;;;;;;;1.30;1.20;;;25.10;1.00;;;;;;5219724;28;20328;-68
2023/06/13 09:24:24;;;;;;;1.42;1.13;;;25.30;1.00;;;;;;5190819;28;20034;-70
2023/06/13 09:26:56;;;;;;;1.15;1.05;;;25.30;1.00;;;;;;5176047;28;20060;-72
2023/06/13 09:29:35;;;;;;;1.30;1.00;;;25.60;1.00;;;;;;5182213;28;20033;-71
2023/06/13 09:32:08;;;;;;;1.33;1.23;;;25.80;1.00;;;;;;5197182;28;20044;-70
2023/06/13 09:34:45;;;;;;;1.40;1.25;;;25.70;1.00;;;;;;5165971;28;20045;-69
2023/06/13 09:37:16;;;;;;;2.00;1.30;;;25.90;1.00;;;;;;5182087;28;20051;-66
2023/06/13 09:39:50;;;;;;;1.67;1.58;;;25.90;1.00;;;;;;5167911;28;20380;-67
2023/06/13 09:42:24;;;;;;;1.63;1.33;;;25.20;1.00;;;;;;5200064;28;20029;-71
2023/06/13 09:44:56;;;;;;;1.35;1.25;;;24.90;1.00;;;;;;5198873;28;20029;-74
2023/06/13 09:47:28;;;;;;;1.30;1.00;;;25.50;1.00;;;;;;5180206;28;20230;-70
2023/06/13 09:50:03;;;;;;;1.60;1.30;;;25.50;1.00;;;;;;5196277;28;20029;-70
2023/06/13 09:52:37;;;;;;;3.00;1.45;;;24.50;1.00;;;;;;5217597;28;20029;-72
2023/06/13 09:55:09;;;;;;;3.13;2.67;;;24.80;1.00;;;;;;5201604;28;20048;-72
2023/06/13 09:57:40;;;;;;;5.15;3.08;;;25.00;1.00;;;;;;5150172;28;20048;-69
2023/06/13 10:00:14;;;;;;;1.83;1.38;;;25.50;1.00;;;;;;5191898;28;20025;-71
2023/06/13 10:02:46;;;;;;;1.60;1.30;;;25.50;1.00;;;;;;5197645;28;20041;-69
2023/06/13 10:05:20;;;;;;;2.22;1.75;;;25.80;1.00;;;;;;5190598;28;20049;-71
2023/06/13 10:07:57;;;;;;;2.15;1.80;;;25.10;1.00;;;;;;5186797;28;20037;-71
2023/06/13 10:10:29;;;;;;;2.33;1.38;;;25.70;1.00;;;;;;5204796;28;20034;-67
2023/06/13 10:13:09;;;;;;;4.57;1.83;;;26.20;1.00;;;;;;5198574;28;20041;-70
2023/06/13 10:15:51;;;;;;;12.27;2.75;;;26.70;1.00;;;;;;5197490;28;20060;-68
2023/06/13 10:18:30;;;;;;;2.30;1.67;;;27.30;1.00;;;;;;5198576;28;20037;-68
2023/06/13 10:21:02;;;;;;;1.35;1.25;;;27.20;1.00;;;;;;5194868;28;20029;-70
2023/06/13 10:23:44;;;;;;;2.38;1.50;;;27.40;1.00;;;;;;5218873;28;20050;-72
2023/06/13 10:26:42;;;;;;;1.23;1.13;;;28.20;1.00;;;;;;5202922;28;20043;-70
2023/06/13 10:29:34;;;;;;;2.00;1.65;;;27.90;1.00;;;;;;5181249;28;20034;-68
2023/06/13 10:32:24;;;;;;;1.85;1.45;;;27.90;1.00;;;;;;5196742;28;20068;-72
2023/06/13 10:35:13;;;;;;;1.80;1.52;;;27.90;1.00;;;;;;5200201;28;20041;-73
2023/06/13 10:38:05;;;;;;;1.90;1.40;;;28.10;1.00;;;;;;5197327;28;20116;-65
2023/06/13 10:41:04;;;;;;;1.77;1.35;;;25.30;1.00;;;;;;5180451;28;20541;-69
2023/06/13 10:44:12;;;;;;;1.92;1.38;;;26.20;1.00;;;;;;5176472;28;20482;-70
2023/06/13 10:46:47;;;;;;;2.00;1.10;;;27.10;1.00;;;;;;5168037;28;20037;-69
2023/06/13 10:49:19;;;;;;;1.65;1.55;;;28.30;1.00;;;;;;5217789;28;20037;-70
2023/06/13 10:51:54;;;;;;;1.52;1.42;;;28.80;1.00;;;;;;5172175;28;20040;-71
2023/06/13 10:54:28;;;;;;;3.72;1.25;;;29.20;1.00;;;;;;5176912;28;20029;-70
2023/06/13 10:57:03;;;;;;;1.27;1.17;;;29.90;1.00;;;;;;5202030;28;20037;-69
2023/06/13 10:59:37;;;;;;;1.42;1.20;;;29.00;1.00;;;;;;5196660;28;20346;-69
2023/06/13 11:02:14;;;;;;;1.73;1.63;;;30.20;1.00;;;;;;5194985;28;20037;-68
2023/06/13 11:04:56;;;;;;;3.70;1.40;;;30.50;1.00;;;;;;5165201;28;20049;-71
2023/06/13 11:07:28;;;;;;;3.78;1.42;;;30.60;1.00;;;;;;5208706;28;20033;-70
2023/06/13 11:10:12;;;;;;;3.83;1.40;;;31.20;1.00;;;;;;5182190;28;20045;-70
2023/06/13 11:12:45;;;;;;;1.50;1.27;;;31.10;1.00;;;;;;5190570;28;20039;-69
2023/06/13 11:15:29;;;;;;;1.20;1.10;;;31.50;1.00;;;;;;5167907;28;20040;-70
2023/06/13 11:18:07;;;;;;;1.42;1.30;;;31.60;1.00;;;;;;5181049;28;20037;-71
2023/06/13 11:20:52;;;;;;;2.20;1.52;;;31.20;1.00;;;;;;5198032;28;20033;-69
2023/06/13 11:23:35;;;;;;;1.73;1.20;;;31.20;1.00;;;;;;5198576;28;20037;-71
2023/06/13 11:26:07;;;;;;;1.60;1.48;;;32.30;1.00;;;;;;5201887;28;20049;-71
2023/06/13 11:28:41;;;;;;;1.55;1.25;;;33.80;1.00;;;;;;5182285;28;20726;-69
2023/06/13 11:31:12;;;;;;;;;;;33.80;1.00;;;;;;5212330;28;20037;-71
2023/06/13 11:33:48;;;;;;;3.15;1.40;;;33.40;1.00;;;;;;5174233;28;20114;-71
2023/06/13 11:36:19;;;;;;;5.22;1.63;;;33.20;1.00;;;;;;5203437;28;20025;-71
2023/06/13 11:39:03;;;;;;;1.48;1.38;;;32.00;1.00;;;;;;5202068;28;20374;-70
2023/06/13 11:41:37;;;;;;;1.58;1.30;;;31.30;1.00;;;;;;5202497;28;20044;-70
2023/06/13 11:44:11;;;;;;;5.57;1.27;;;31.00;1.00;;;;;;5199040;28;20037;-70
2023/06/13 11:46:43;;;;;;;1.75;1.40;;;30.70;1.00;;;;;;5181696;28;20037;-70
2023/06/13 11:49:15;;;;;;;3.42;1.40;;;30.60;1.00;;;;;;5201452;28;20237;-70
2023/06/13 11:51:46;;;;;;;1.95;1.67;;;31.00;1.00;;;;;;5185177;28;20047;-71
2023/06/13 11:54:18;;;;;;;1.98;1.35;;;30.90;1.00;;;;;;5185360;28;20021;-70
2023/06/13 11:56:53;;;;;;;2.08;1.52;;;31.40;1.00;;;;;;5183610;28;20037;-68
2023/06/13 11:59:28;;;;;;;2.25;1.83;;;31.80;1.00;;;;;;5167415;28;20052;-69
2023/06/13 12:01:59;;;;;;;1.38;1.27;;;31.80;1.00;;;;;;5197235;28;20253;-68
2023/06/13 12:04:33;;;;;;;2.10;1.52;;;33.10;1.00;;;;;;5160880;28;20055;-67
2023/06/13 12:07:07;;;;;;;1.77;1.58;;;33.20;1.00;;;;;;5168110;28;20041;-72
2023/06/13 12:09:43;;;;;;;;;;;33.00;1.00;;;;;;5185220;28;20045;-69
2023/06/13 12:12:17;;;;;;;3.40;1.58;;;32.90;1.00;;;;;;5189745;28;19912;-67
2023/06/13 12:14:58;;;;;;;2.22;1.50;;;32.70;1.00;;;;;;5179057;28;20059;-70
2023/06/13 12:17:32;;;;;;;1.88;1.30;;;33.20;1.00;;;;;;5200987;28;20037;-66
2023/06/13 12:20:07;;;;;;;1.35;1.25;;;30.70;1.00;;;;;;5169357;28;20510;-70
2023/06/13 12:22:43;;;;;;;1.35;1.25;;;29.20;1.00;;;;;;5199833;28;20047;-68
2023/06/13 12:25:17;;;;;;;1.95;1.63;;;29.80;1.00;;;;;;5186414;28;20041;-70
2023/06/13 12:27:51;;;;;;;2.55;1.90;;;30.70;1.00;;;;;;5192221;28;20053;-70
2023/06/13 12:30:25;;;;;;;1.77;1.52;;;32.10;1.00;;;;;;5175456;28;20033;-70
2023/06/13 12:32:57;;;;;;;2.17;1.23;;;31.90;1.00;;;;;;5184594;28;20229;-67
2023/06/13 12:35:31;;;;;;;1.52;1.20;;;32.00;1.00;;;;;;5168719;28;20060;-69
2023/06/13 12:38:02;;;;;;;;;;;33.10;1.00;;;;;;5159967;28;20041;-71
2023/06/13 12:40:38;;;;;;;2.53;1.27;;;33.40;1.00;;;;;;5205510;28;19913;-71
2023/06/13 12:43:10;;;;;;;2.33;1.63;;;34.30;1.00;;;;;;5184221;28;20033;-71
2023/06/13 12:45:43;;;;;;;1.50;1.27;;;34.10;1.00;;;;;;5199962;28;20029;-69
2023/06/13 12:48:19;;;;;;;1.33;1.20;;;32.40;1.00;;;;;;5168823;28;20377;-72
2023/06/13 12:50:58;;;;;;;2.03;1.35;;;30.50;1.00;;;;;;5174217;28;20037;-71
2023/06/13 12:53:35;;;;;;;2.25;1.55;;;28.80;1.00;;;;;;5169165;28;20064;-69
2023/06/13 12:56:08;;;;;;;1.95;1.30;;;28.30;1.00;;;;;;5202279;28;20038;-72
2023/06/13 12:58:42;;;;;;;2.47;1.08;;;29.50;1.00;;;;;;5171617;28;20033;-70
2023/06/13 13:01:14;;;;;;;1.90;1.52;;;31.00;1.00;;;;;;5177138;28;20041;-74
2023/06/13 13:03:46;;;;;;;2.47;1.42;;;30.40;1.00;;;;;;5159121;28;20254;-68
2023/06/13 13:06:24;;;;;;;1.55;1.42;;;31.70;1.00;;;;;;5209372;28;20057;-69
2023/06/13 13:08:58;;;;;;;2.53;1.40;;;32.60;1.00;;;;;;5208387;28;20043;-71
2023/06/13 13:11:32;;;;;;;2.10;1.30;;;33.60;1.00;;;;;;5202095;28;20045;-70
2023/06/13 13:14:06;;;;;;;1.55;1.45;;;34.00;1.00;;;;;;5200774;28;20033;-71
2023/06/13 13:16:42;;;;;;;2.00;1.73;;;34.60;1.00;;;;;;5156860;28;20076;-68
2023/06/13 13:19:16;;;;;;;1.33;1.20;;;35.60;1.00;;;;;;5183730;28;20040;-70
2023/06/13 13:21:48;;;;;;;2.55;1.63;;;35.90;1.00;;;;;;5168683;28;20033;-71
2023/06/13 13:24:23;;;;;;;2.05;1.58;;;37.00;1.00;;;;;;5175437;28;20260;-75
2023/06/13 13:27:00;;;;;;;1.65;1.52;;;37.70;1.00;;;;;;5190609;28;20041;-71
2023/06/13 13:29:31;;;;;;;1.25;1.15;;;35.90;1.00;;;;;;5217957;28;20029;-74
2023/06/13 13:32:04;;;;;;;1.70;1.33;;;33.00;1.00;;;;;;5188759;28;20225;-67
2023/06/13 13:34:37;;;;;;;1.85;1.40;;;31.40;1.00;;;;;;5189554;28;20029;-67
2023/06/13 13:37:08;;;;;;;1.90;1.40;;;32.00;1.00;;;;;;5200508;28;20218;-67
2023/06/13 13:39:43;;;;;;;2.35;1.30;;;33.00;1.00;;;;;;5200359;28;20241;-71
2023/06/13 13:42:14;;;;;;;1.33;1.23;;;33.00;1.00;;;;;;5168630;28;20047;-68
2023/06/13 13:44:47;;;;;;;1.50;1.40;;;33.00;1.00;;;;;;5201902;28;20307;-73
2023/06/13 13:47:18;;;;;;;2.08;1.40;;;33.90;1.00;;;;;;5160483;28;20574;-73
2023/06/13 13:49:53;;;;;;;1.55;1.10;;;32.20;1.00;;;;;;5179747;28;20484;-73
2023/06/13 13:52:25;;;;;;;1.40;1.27;;;31.60;1.00;;;;;;5167583;28;20037;-70